createdAt,value
2023-05-10T00:03:59.677Z,2.90
2023-05-10T00:09:02.222Z,3.80
2023-05-10T00:14:04.923Z,4.50
2023-05-10T00:19:07.606Z,4.00
2023-05-10T00:24:10.184Z,3.90
2023-05-10T00:29:12.860Z,4.00
2023-05-10T00:34:15.797Z,4.20
2023-05-10T00:39:18.406Z,4.60
2023-05-10T00:44:20.966Z,4.10
2023-05-10T00:49:23.874Z,4.30
2023-05-10T00:54:26.608Z,4.40
2023-05-10T00:59:30.138Z,4.60
2023-05-10T01:04:32.686Z,4.50
2023-05-10T01:09:35.644Z,4.20
2023-05-10T01:14:38.538Z,4.60
2023-05-10T01:19:41.344Z,3.90
2023-05-10T01:25:06.272Z,4.10
2023-05-10T01:35:54.860Z,4.20
2023-05-10T01:41:12.700Z,4.00
2023-05-10T01:46:25.642Z,4.70
2023-05-10T01:51:36.438Z,3.70
2023-05-10T01:56:41.659Z,3.90
2023-05-10T02:01:46.068Z,3.50
2023-05-10T02:06:49.659Z,3.20
2023-05-10T02:11:54.810Z,4.40
2023-05-10T02:16:59.553Z,3.30
2023-05-10T02:22:04.289Z,3.60
2023-05-10T02:27:07.859Z,4.30
2023-05-10T02:32:11.718Z,3.90
2023-05-10T02:37:21.441Z,4.30
2023-05-10T02:42:28.773Z,4.90
2023-05-10T02:47:31.421Z,4.80
2023-05-10T02:52:47.679Z,4.60
2023-05-10T02:57:57.739Z,4.80
2023-05-10T03:03:00.450Z,4.70
2023-05-10T03:08:05.140Z,4.90
2023-05-10T03:13:30.621Z,5.50
2023-05-10T03:18:55.574Z,4.80
2023-05-10T03:24:04.040Z,4.40
2023-05-10T03:29:07.348Z,4.40
2023-05-10T03:34:10.030Z,5.00
2023-05-10T03:39:12.526Z,4.30
2023-05-10T03:44:15.100Z,4.80
2023-05-10T03:49:17.649Z,4.70
2023-05-10T03:54:20.294Z,4.40
2023-05-10T03:59:22.811Z,4.70
2023-05-10T04:04:25.394Z,4.80
2023-05-10T04:09:27.985Z,5.00
2023-05-10T04:14:30.586Z,4.50
2023-05-10T04:19:33.862Z,4.80
2023-05-10T04:24:36.408Z,4.90
2023-05-10T04:29:39.345Z,5.00
2023-05-10T04:34:41.932Z,5.20
2023-05-10T04:39:45.298Z,5.00
2023-05-10T04:44:48.038Z,5.00
2023-05-10T04:49:50.641Z,5.10
2023-05-10T04:54:53.249Z,5.30
2023-05-10T04:59:56.008Z,5.30
2023-05-10T05:05:01.515Z,5.30
2023-05-10T05:10:04.593Z,5.30
2023-05-10T05:15:09.881Z,5.00
2023-05-10T05:20:13.660Z,4.50
2023-05-10T05:25:16.917Z,5.80
2023-05-10T05:30:19.990Z,6.10
2023-05-10T05:35:22.573Z,4.40
2023-05-10T05:40:25.259Z,4.60
2023-05-10T05:45:27.924Z,4.40
2023-05-10T05:50:30.533Z,5.10
2023-05-10T05:55:33.430Z,4.40
2023-05-10T06:00:36.134Z,3.70
2023-05-10T06:05:38.820Z,4.30
2023-05-10T06:10:41.411Z,4.10
2023-05-10T06:15:45.359Z,4.20
2023-05-10T06:20:50.766Z,4.20
2023-05-10T06:25:54.280Z,3.80
2023-05-10T06:30:57.902Z,3.70
2023-05-10T06:36:01.200Z,3.80
2023-05-10T06:41:04.110Z,3.70
2023-05-10T06:46:08.211Z,3.50
2023-05-10T06:51:11.115Z,3.90
2023-05-10T06:56:13.701Z,3.40
2023-05-10T07:01:16.374Z,3.10
2023-05-10T07:06:32.291Z,3.00
2023-05-10T07:11:38.350Z,2.80
2023-05-10T07:16:40.972Z,2.60
2023-05-10T07:21:44.310Z,2.80
2023-05-10T07:26:47.199Z,2.90
2023-05-10T07:31:50.038Z,2.80
2023-05-10T07:36:53.563Z,2.80
2023-05-10T07:41:56.783Z,2.90
2023-05-10T07:46:59.549Z,2.90
2023-05-10T07:52:04.211Z,2.20
2023-05-10T07:57:07.235Z,2.40
2023-05-10T08:02:09.853Z,3.10
2023-05-10T08:07:12.570Z,3.00
2023-05-10T08:12:15.287Z,2.60
2023-05-10T08:17:20.083Z,2.80
2023-05-10T08:27:25.951Z,2.30
2023-05-10T08:32:28.518Z,2.90
2023-05-10T08:37:31.339Z,2.70
2023-05-10T08:42:37.113Z,2.70
2023-05-10T08:47:40.182Z,2.60
2023-05-10T08:52:43.597Z,2.60
2023-05-10T08:57:46.491Z,2.90
2023-05-10T09:02:51.176Z,2.50
2023-05-10T09:07:53.917Z,2.60
2023-05-10T09:12:59.336Z,2.60
2023-05-10T09:18:03.356Z,2.60
2023-05-10T09:23:06.783Z,2.50
2023-05-10T09:28:10.561Z,2.80
2023-05-10T09:33:13.202Z,2.70
2023-05-10T09:38:16.340Z,2.40
2023-05-10T09:43:18.907Z,2.50
2023-05-10T09:48:25.014Z,3.40
2023-05-10T09:53:27.571Z,2.50
2023-05-10T09:58:30.374Z,2.70
2023-05-10T10:03:33.971Z,2.40
2023-05-10T10:08:37.229Z,2.50
2023-05-10T10:13:41.353Z,2.60
2023-05-10T10:18:45.347Z,2.80
2023-05-10T10:23:51.992Z,2.70
2023-05-10T10:29:26.538Z,2.40
2023-05-10T10:34:31.432Z,2.70
2023-05-10T10:39:34.175Z,2.60
2023-05-10T10:44:39.262Z,2.30
2023-05-10T10:49:41.910Z,2.60
2023-05-10T10:54:53.377Z,3.10
2023-05-10T11:00:23.952Z,2.50
2023-05-10T11:05:38.563Z,2.40
2023-05-10T11:10:49.719Z,2.20
2023-05-10T11:15:52.481Z,2.70
2023-05-10T11:21:10.194Z,2.70
2023-05-10T11:26:13.414Z,2.30
2023-05-10T11:31:17.827Z,2.40
2023-05-10T11:36:22.520Z,2.30
2023-05-10T11:41:26.445Z,2.20
2023-05-10T11:46:29.620Z,2.30
2023-05-10T11:51:36.143Z,2.20
2023-05-10T11:56:40.188Z,2.40
2023-05-10T12:01:43.838Z,2.30
2023-05-10T12:06:47.518Z,2.40
2023-05-10T12:11:50.053Z,2.30
2023-05-10T12:16:52.723Z,2.10
2023-05-10T12:21:55.368Z,2.20
2023-05-10T12:26:57.973Z,2.20
2023-05-10T12:32:01.332Z,2.10
2023-05-10T12:37:05.139Z,2.40
2023-05-10T12:42:08.059Z,2.20
2023-05-10T12:47:10.719Z,2.20
2023-05-10T12:52:13.234Z,2.10
2023-05-10T12:57:16.002Z,2.20
2023-05-10T13:02:19.136Z,2.30
2023-05-10T13:07:21.826Z,2.00
2023-05-10T13:12:24.507Z,2.20
2023-05-10T13:17:27.149Z,2.00
2023-05-10T13:22:39.741Z,2.30
2023-05-10T13:27:43.004Z,2.50
2023-05-10T13:38:08.723Z,2.00
2023-05-10T13:43:11.369Z,2.00
2023-05-10T13:48:14.571Z,1.90
2023-05-10T13:53:17.185Z,1.90
2023-05-10T13:58:20.536Z,2.00
2023-05-10T14:03:23.475Z,1.80
2023-05-10T14:08:28.227Z,2.20
2023-05-10T14:13:31.373Z,1.80
2023-05-10T14:18:34.060Z,1.80
2023-05-10T14:23:36.790Z,2.20
2023-05-10T14:28:39.491Z,1.90
2023-05-10T14:33:42.241Z,1.90
2023-05-10T14:38:45.019Z,1.70
2023-05-10T14:43:47.541Z,1.70
2023-05-10T14:48:50.159Z,1.60
2023-05-10T14:58:56.643Z,1.60
2023-05-10T15:04:00.012Z,1.60
2023-05-10T15:09:04.523Z,1.80
2023-05-10T15:14:07.383Z,1.60
2023-05-10T15:19:10.992Z,1.60
2023-05-10T15:24:13.612Z,1.60
2023-05-10T15:29:20.927Z,1.80
2023-05-10T15:34:23.510Z,1.50
2023-05-10T15:39:26.061Z,1.50
2023-05-10T15:44:28.933Z,1.70
2023-05-10T15:49:31.679Z,1.60
2023-05-10T15:54:34.251Z,1.60
2023-05-10T15:59:37.748Z,1.70
2023-05-10T16:04:40.359Z,1.80
2023-05-10T16:09:43.111Z,1.60
2023-05-10T16:14:46.759Z,1.60
2023-05-10T16:19:49.393Z,1.50
2023-05-10T16:24:53.628Z,1.80
2023-05-10T16:29:56.264Z,2.00
2023-05-10T16:34:59.002Z,2.70
2023-05-10T16:40:01.666Z,2.10
2023-05-10T16:45:07.684Z,2.00
2023-05-10T16:50:10.468Z,2.30
2023-05-10T16:55:13.078Z,2.00
2023-05-10T17:00:16.306Z,2.40
2023-05-10T17:05:19.063Z,2.40
2023-05-10T17:10:21.818Z,2.00
2023-05-10T17:15:24.407Z,2.60
2023-05-10T17:20:27.503Z,2.50
2023-05-10T17:25:30.063Z,2.10
2023-05-10T17:30:32.967Z,2.20
2023-05-10T17:35:35.644Z,2.10
2023-05-10T17:40:40.928Z,2.40
2023-05-10T17:45:44.793Z,2.20
2023-05-10T17:50:50.018Z,2.20
2023-05-10T17:55:52.736Z,2.40
2023-05-10T18:00:58.390Z,2.20
2023-05-10T18:06:01.259Z,2.40
2023-05-10T18:11:03.930Z,2.90
2023-05-10T18:16:08.881Z,2.80
2023-05-10T18:21:11.472Z,2.50
2023-05-10T18:26:14.160Z,2.50
2023-05-10T18:31:16.811Z,2.50
2023-05-10T18:36:19.460Z,2.80
2023-05-10T18:41:22.417Z,3.10
2023-05-10T18:46:25.153Z,3.30
2023-05-10T18:51:29.551Z,3.10
2023-05-10T18:56:32.187Z,2.60
2023-05-10T19:01:34.742Z,2.70
2023-05-10T19:06:37.398Z,3.00
2023-05-10T19:11:40.989Z,2.90
2023-05-10T19:16:43.712Z,3.00
2023-05-10T19:21:48.350Z,3.90
2023-05-10T19:26:51.988Z,3.50
2023-05-10T19:31:54.627Z,3.10
2023-05-10T19:36:57.266Z,4.10
2023-05-10T19:42:00.773Z,4.30
2023-05-10T19:47:05.198Z,3.60
2023-05-10T19:52:08.156Z,3.80
2023-05-10T19:57:12.027Z,3.80
2023-05-10T20:02:15.476Z,3.70
2023-05-10T20:07:20.969Z,4.50
2023-05-10T20:12:26.465Z,5.20
2023-05-10T20:17:29.472Z,7.00
2023-05-10T20:22:32.078Z,6.50
2023-05-10T20:27:38.612Z,6.20
2023-05-10T20:32:49.157Z,5.40
2023-05-10T20:37:53.050Z,4.30
2023-05-10T20:42:55.789Z,4.80
2023-05-10T20:47:58.523Z,3.90
2023-05-10T20:53:01.383Z,4.10
2023-05-10T20:58:05.104Z,4.30
2023-05-10T21:03:08.086Z,3.40
2023-05-10T21:08:10.765Z,3.60
2023-05-10T21:13:13.458Z,4.50
2023-05-10T21:18:16.013Z,4.20
2023-05-10T21:23:18.659Z,6.60
2023-05-10T21:28:21.649Z,6.20
2023-05-10T21:33:24.362Z,7.20
2023-05-10T21:38:29.996Z,7.50
2023-05-10T21:43:32.765Z,5.40
2023-05-10T21:48:36.376Z,4.10
2023-05-10T21:53:39.435Z,3.20
2023-05-10T21:58:41.943Z,3.60
2023-05-10T22:03:44.774Z,4.30
2023-05-10T22:08:47.422Z,3.60
2023-05-10T22:13:50.003Z,3.30
2023-05-10T22:18:54.418Z,3.10
2023-05-10T22:23:57.145Z,3.40
2023-05-10T22:28:59.862Z,3.70
2023-05-10T22:34:02.516Z,3.10
2023-05-10T22:39:05.039Z,3.20
2023-05-10T22:44:08.244Z,3.90
2023-05-10T22:49:11.350Z,3.50
2023-05-10T22:54:14.050Z,3.40
2023-05-10T22:59:16.580Z,3.60
2023-05-10T23:04:19.177Z,3.30
2023-05-10T23:09:21.794Z,3.30
2023-05-10T23:14:24.433Z,3.40
2023-05-10T23:19:26.984Z,3.70
2023-05-10T23:24:29.575Z,3.90
2023-05-10T23:29:32.978Z,4.00
2023-05-10T23:34:36.521Z,3.60
2023-05-10T23:39:39.065Z,4.10
2023-05-10T23:44:41.794Z,4.10
2023-05-10T23:49:44.455Z,3.60
2023-05-10T23:54:47.291Z,3.40
2023-05-10T23:59:51.131Z,3.50
